Time;durP1;ratioP1;P1;durP2;ratioP2;P2;SDS_P1;SDS_P2;PMS_P1;PMS_P2;Temp;Humidity;BMP_temperature;BMP_pressure;BME280_temperature;BME280_humidity;BME280_pressure;Samples;Min_cycle;Max_cycle;Signal;HPM_P1;HPM_P2
2022/07/28 01:12:44;;;;;;;;;;;15.30;99.90;;;;;;5006284;28;19952;-66
2022/07/28 01:15:12;;;;;;;;;;;15.20;99.90;;;;;;5009135;28;20427;-63
2022/07/28 01:17:51;;;;;;;;;;;15.20;99.90;;;;;;5007059;28;19929;-63
2022/07/28 01:20:40;;;;;;;;;;;15.20;99.90;;;;;;5023869;28;19930;-63
2022/07/28 01:23:11;;;;;;;;;;;15.20;99.90;;;;;;5006786;28;20266;-63
2022/07/28 01:25:44;;;;;;;;;;;15.20;99.90;;;;;;5009647;28;19948;-63
2022/07/28 01:28:23;;;;;;;;;;;15.20;99.90;;;;;;5007576;28;19925;-64
2022/07/28 01:30:56;;;;;;;;;;;15.20;99.90;;;;;;4992869;28;20325;-63
2022/07/28 01:33:27;;;;;;;;;;;15.20;99.90;;;;;;5026877;28;20389;-64
2022/07/28 01:36:01;;;;;;;;;;;15.20;99.90;;;;;;5010655;28;19960;-64
2022/07/28 01:38:31;;;;;;;;;;;15.20;99.90;;;;;;5012140;28;19953;-64
2022/07/28 01:40:59;;;;;;;;;;;15.20;99.90;;;;;;5023102;28;19926;-64
2022/07/28 01:43:30;;;;;;;;;;;15.20;99.90;;;;;;4996970;28;19932;-65
2022/07/28 01:45:58;;;;;;;;;;;15.20;99.90;;;;;;5010020;28;19936;-63
2022/07/28 01:48:26;;;;;;;;;;;15.20;99.90;;;;;;5012051;28;19925;-64
2022/07/28 01:50:55;;;;;;;;;;;15.20;99.90;;;;;;5011815;28;20404;-64
2022/07/28 01:53:24;;;;;;;;;;;15.10;99.90;;;;;;5014552;28;19925;-64
2022/07/28 01:55:52;;;;;;;;;;;15.10;99.90;;;;;;5031825;28;19925;-62
2022/07/28 01:58:21;;;;;;;;;;;15.20;99.90;;;;;;5020745;28;20393;-63
2022/07/28 02:00:50;;;;;;;;;;;15.10;99.90;;;;;;5015094;28;19925;-63
2022/07/28 02:03:21;;;;;;;;;;;15.10;99.90;;;;;;5015479;28;20475;-64
2022/07/28 02:05:49;;;;;;;;;;;15.10;99.90;;;;;;5016354;28;19926;-63
2022/07/28 02:08:19;;;;;;;;;;;15.10;99.90;;;;;;5016166;28;19933;-63
2022/07/28 02:11:38;;;;;;;;;;;15.10;99.90;;;;;;5013990;28;19926;-63
2022/07/28 02:13:37;;;;;;;;;;;15.00;99.90;;;;;;5015599;28;19948;-65
2022/07/28 02:16:06;;;;;;;;;;;15.00;99.90;;;;;;5015116;28;19925;-64
2022/07/28 02:18:35;;;;;;;;;;;15.00;99.90;;;;;;5012740;28;19926;-63
2022/07/28 02:21:03;;;;;;;;;;;14.90;99.90;;;;;;5031039;28;19926;-64
2022/07/28 02:23:32;;;;;;;;;;;14.90;99.90;;;;;;5015052;28;20381;-63
2022/07/28 02:26:02;;;;;;;;;;;14.90;99.90;;;;;;5015856;28;19925;-63
2022/07/28 02:28:29;;;;;;;;;;;14.80;99.90;;;;;;5013676;28;19940;-63
2022/07/28 02:30:58;;;;;;;;;;;14.80;99.90;;;;;;5015572;28;19926;-63
2022/07/28 02:33:27;;;;;;;;;;;14.80;99.90;;;;;;5014523;28;20329;-63
2022/07/28 02:36:25;;;;;;;;;;;14.80;99.90;;;;;;5013694;28;19926;-62
2022/07/28 02:38:54;;;;;;;;;;;14.80;99.90;;;;;;5015543;28;19925;-63
2022/07/28 02:41:29;;;;;;;;;;;14.70;99.90;;;;;;5014596;28;19941;-63
2022/07/28 02:43:59;;;;;;;;;;;14.80;99.90;;;;;;5015417;28;19933;-64
2022/07/28 02:46:37;;;;;;;;;;;14.70;99.90;;;;;;5015467;28;19926;-65
2022/07/28 02:49:08;;;;;;;;;;;14.80;99.90;;;;;;4995692;28;19933;-64
2022/07/28 02:51:36;;;;;;;;;;;14.70;99.90;;;;;;4995872;28;19933;-64
2022/07/28 02:54:04;;;;;;;;;;;14.70;99.90;;;;;;5011994;28;19925;-63
2022/07/28 02:56:32;;;;;;;;;;;14.70;99.90;;;;;;5035058;28;20345;-63
2022/07/28 02:59:01;;;;;;;;;;;14.70;99.90;;;;;;5024496;28;19925;-64
2022/07/28 03:01:29;;;;;;;;;;;14.70;99.90;;;;;;5013738;28;19925;-64
2022/07/28 03:03:58;;;;;;;;;;;14.70;99.90;;;;;;5013240;28;19925;-64
2022/07/28 03:06:25;;;;;;;;;;;14.60;99.90;;;;;;5013581;28;20361;-64
2022/07/28 03:08:56;;;;;;;;;;;14.60;99.90;;;;;;5014977;28;19932;-64
2022/07/28 03:11:23;;;;;;;;;;;14.70;99.90;;;;;;5013897;28;19925;-64
2022/07/28 03:13:51;;;;;;;;;;;14.60;99.90;;;;;;5014655;28;20282;-63
2022/07/28 03:16:19;;;;;;;;;;;14.60;99.90;;;;;;5012722;28;19925;-63
2022/07/28 03:18:48;;;;;;;;;;;14.60;99.90;;;;;;5013859;28;19926;-63
2022/07/28 03:21:16;;;;;;;;;;;14.60;99.90;;;;;;5013437;28;19932;-63
2022/07/28 03:23:46;;;;;;;;;;;14.60;99.90;;;;;;5014151;28;20397;-63
2022/07/28 03:26:16;;;;;;;;;;;14.60;99.90;;;;;;5012614;28;19933;-64
2022/07/28 03:28:44;;;;;;;;;;;14.60;99.90;;;;;;5014460;28;19934;-64
2022/07/28 03:31:12;;;;;;;;;;;14.60;99.90;;;;;;5013909;28;19937;-63
2022/07/28 03:33:40;;;;;;;;;;;14.50;99.90;;;;;;5014357;28;19925;-64
2022/07/28 03:36:10;;;;;;;;;;;14.50;99.90;;;;;;5014405;28;19926;-64
2022/07/28 03:38:39;;;;;;;;;;;14.50;99.90;;;;;;5013516;28;19941;-64
2022/07/28 03:41:08;;;;;;;;;;;14.50;99.90;;;;;;5013051;28;19997;-64
2022/07/28 03:43:36;;;;;;;;;;;14.50;99.90;;;;;;5015935;28;19925;-64
2022/07/28 03:46:05;;;;;;;;;;;14.50;99.90;;;;;;5012896;28;19925;-64
2022/07/28 03:48:39;;;;;;;;;;;14.50;99.90;;;;;;5014219;28;20313;-64
2022/07/28 03:51:07;;;;;;;;;;;14.50;99.90;;;;;;5011968;28;20270;-64
2022/07/28 03:53:35;;;;;;;;;;;14.50;99.90;;;;;;5020183;28;20400;-64
2022/07/28 03:56:02;;;;;;;;;;;14.50;99.90;;;;;;5022541;28;19930;-64
2022/07/28 03:58:30;;;;;;;;;;;14.50;99.90;;;;;;5009468;28;19925;-65
2022/07/28 04:00:58;;;;;;;;;;;14.50;99.90;;;;;;5013369;28;19933;-63
2022/07/28 04:03:25;;;;;;;;;;;14.50;99.90;;;;;;5012615;28;19933;-63
2022/07/28 04:06:11;;;;;;;;;;;14.40;99.90;;;;;;5012261;28;20005;-64
2022/07/28 04:08:38;;;;;;;;;;;14.40;99.90;;;;;;5013719;28;19925;-65
2022/07/28 04:11:06;;;;;;;;;;;14.40;99.90;;;;;;5013540;28;19925;-64
2022/07/28 04:13:35;;;;;;;;;;;14.40;99.90;;;;;;5011570;28;19933;-65
2022/07/28 04:16:04;;;;;;;;;;;14.40;99.90;;;;;;5010556;28;20289;-64
2022/07/28 04:18:31;;;;;;;;;;;14.40;99.90;;;;;;5011911;28;19948;-64
2022/07/28 04:20:59;;;;;;;;;;;14.40;99.90;;;;;;5012889;28;19926;-64
2022/07/28 04:23:26;;;;;;;;;;;14.40;99.90;;;;;;5012705;28;19926;-65
2022/07/28 04:25:54;;;;;;;;;;;14.30;99.90;;;;;;5012409;28;19933;-65
2022/07/28 04:28:21;;;;;;;;;;;14.30;99.90;;;;;;5013376;28;19925;-64
2022/07/28 04:30:49;;;;;;;;;;;14.30;99.90;;;;;;5012977;28;19926;-64
2022/07/28 04:33:18;;;;;;;;;;;14.30;99.90;;;;;;5012126;28;19933;-64
2022/07/28 04:35:46;;;;;;;;;;;14.30;99.90;;;;;;5012401;28;19926;-63
2022/07/28 04:38:13;;;;;;;;;;;14.30;99.90;;;;;;5012051;28;19925;-64
2022/07/28 04:40:41;;;;;;;;;;;14.30;99.90;;;;;;5011497;28;19926;-64
2022/07/28 04:43:11;;;;;;;;;;;14.30;99.90;;;;;;5013062;28;19926;-65
2022/07/28 04:45:39;;;;;;;;;;;14.30;99.90;;;;;;5013030;28;19933;-64
2022/07/28 04:48:21;;;;;;;;;;;14.30;99.90;;;;;;5007125;28;19929;-64
2022/07/28 04:50:50;;;;;;;;;;;14.30;99.90;;;;;;5008504;28;19932;-65
2022/07/28 04:53:17;;;;;;;;;;;14.30;99.90;;;;;;5012787;28;19948;-65
2022/07/28 04:55:45;;;;;;;;;;;14.30;99.90;;;;;;5029631;28;19941;-64
2022/07/28 04:58:12;;;;;;;;;;;14.30;99.90;;;;;;5016741;28;20421;-65
2022/07/28 05:00:43;;;;;;;;;;;14.30;99.90;;;;;;5008277;28;20408;-65
2022/07/28 05:03:11;;;;;;;;;;;14.30;99.90;;;;;;5000574;28;19933;-64
2022/07/28 05:05:38;;;;;;;;;;;14.30;99.90;;;;;;5004862;28;20435;-65
2022/07/28 05:08:06;;;;;;;;;;;14.30;99.90;;;;;;5005228;28;19925;-65
2022/07/28 05:10:34;;;;;;;;;;;14.30;99.90;;;;;;5009042;28;20389;-65
2022/07/28 05:13:05;;;;;;;;;;;14.30;99.90;;;;;;5008312;28;19926;-64
2022/07/28 05:15:33;;;;;;;;;;;14.30;99.90;;;;;;5008083;28;20060;-65
2022/07/28 05:18:01;;;;;;;;;;;14.30;99.90;;;;;;5005832;28;19996;-64
2022/07/28 05:20:28;;;;;;;;;;;14.30;99.90;;;;;;5004345;28;19944;-64
2022/07/28 05:22:58;;;;;;;;;;;14.30;99.90;;;;;;5006755;28;19937;-65
2022/07/28 05:25:26;;;;;;;;;;;14.40;99.90;;;;;;5024466;28;20069;-65
2022/07/28 05:27:54;;;;;;;;;;;14.40;99.90;;;;;;5008382;28;19951;-64
2022/07/28 05:30:22;;;;;;;;;;;14.40;99.90;;;;;;5006135;28;19933;-64
2022/07/28 05:32:49;;;;;;;;;;;14.40;99.90;;;;;;4997399;28;19930;-65
2022/07/28 05:35:17;;;;;;;;;;;14.40;99.90;;;;;;5006138;28;19925;-64
2022/07/28 05:37:45;;;;;;;;;;;14.40;99.90;;;;;;5005127;28;19932;-65
2022/07/28 05:40:13;;;;;;;;;;;14.40;99.90;;;;;;5006089;28;20278;-65
2022/07/28 05:42:41;;;;;;;;;;;14.50;99.90;;;;;;5007475;28;19926;-63
2022/07/28 05:45:09;;;;;;;;;;;14.50;99.90;;;;;;5025192;28;19932;-63
2022/07/28 05:47:47;;;;;;;;;;;14.50;99.90;;;;;;5019415;28;20329;-64
2022/07/28 05:50:15;;;;;;;;;;;14.50;99.90;;;;;;5021022;28;19925;-64
2022/07/28 05:52:44;;;;;;;;;;;14.50;99.90;;;;;;5011739;28;20380;-64
2022/07/28 05:55:11;;;;;;;;;;;14.50;99.90;;;;;;5008849;28;20396;-63
2022/07/28 05:57:39;;;;;;;;;;;14.50;99.90;;;;;;5005842;28;19925;-66
2022/07/28 06:00:08;;;;;;;;;;;14.50;99.90;;;;;;5008326;28;19932;-64
2022/07/28 06:02:39;;;;;;;;;;;14.50;99.90;;;;;;5007928;28;19933;-65
2022/07/28 06:05:07;;;;;;;;;;;14.60;99.90;;;;;;4988094;28;19925;-65
2022/07/28 06:07:35;;;;;;;;;;;14.60;99.90;;;;;;4998735;28;19960;-64
2022/07/28 06:10:11;;;;;;;;;;;14.60;99.90;;;;;;5007569;28;19926;-64
2022/07/28 06:12:43;;;;;;;;;;;14.60;99.90;;;;;;5005137;28;20381;-64
2022/07/28 06:15:18;;;;;;;;;;;14.60;99.90;;;;;;4988301;28;19926;-63
2022/07/28 06:17:46;;;;;;;;;;;14.70;99.90;;;;;;5002941;28;20436;-63
2022/07/28 06:20:13;;;;;;;;;;;14.70;99.90;;;;;;5020173;28;19933;-64
2022/07/28 06:22:41;;;;;;;;;;;14.70;99.90;;;;;;5007146;28;19932;-64
2022/07/28 06:25:15;;;;;;;;;;;14.70;99.90;;;;;;5005354;28;20471;-64
2022/07/28 06:27:50;;;;;;;;;;;14.70;99.90;;;;;;4981480;28;19933;-64
2022/07/28 06:30:18;;;;;;;;;;;14.70;99.90;;;;;;5001160;28;19925;-63
2022/07/28 06:32:46;;;;;;;;;;;14.70;99.90;;;;;;5001782;28;19925;-64
2022/07/28 06:35:15;;;;;;;;;;;14.80;99.90;;;;;;5005872;28;19936;-65
2022/07/28 06:37:43;;;;;;;;;;;14.80;99.90;;;;;;5007150;28;19925;-65
2022/07/28 06:40:11;;;;;;;;;;;14.90;99.90;;;;;;5020909;28;19933;-63
2022/07/28 06:42:39;;;;;;;;;;;14.90;99.90;;;;;;5005384;28;19940;-64
2022/07/28 06:45:08;;;;;;;;;;;14.90;99.90;;;;;;4990726;28;20132;-64
2022/07/28 06:47:46;;;;;;;;;;;15.00;99.90;;;;;;5000361;28;19926;-63
2022/07/28 06:50:14;;;;;;;;;;;15.10;99.90;;;;;;5008149;28;20825;-64
2022/07/28 06:52:54;;;;;;;;;;;15.10;99.90;;;;;;5008306;28;19926;-64
2022/07/28 06:55:21;;;;;;;;;;;15.20;99.90;;;;;;5028433;28;19929;-63
2022/07/28 06:57:49;;;;;;;;;;;15.20;99.90;;;;;;5018016;28;20301;-65
2022/07/28 07:00:16;;;;;;;;;;;15.20;99.90;;;;;;5012088;28;19929;-63
2022/07/28 07:02:44;;;;;;;;;;;15.30;99.90;;;;;;5008584;28;19933;-63
2022/07/28 07:05:11;;;;;;;;;;;15.40;99.90;;;;;;5007653;28;19925;-62
2022/07/28 07:07:39;;;;;;;;;;;15.40;99.90;;;;;;5010268;28;20304;-64
2022/07/28 07:10:10;;;;;;;;;;;15.40;99.90;;;;;;5025749;28;20393;-65
2022/07/28 07:12:37;;;;;;;;;;;15.40;99.90;;;;;;5011537;28;19926;-63
2022/07/28 07:15:05;;;;;;;;;;;15.50;99.90;;;;;;5010926;28;19925;-64
2022/07/28 07:17:33;;;;;;;;;;;15.60;99.90;;;;;;5006876;28;19941;-64
2022/07/28 07:20:00;;;;;;;;;;;15.60;99.90;;;;;;4994384;28;19925;-63
2022/07/28 07:22:28;;;;;;;;;;;15.60;99.90;;;;;;5011352;28;19925;-64
2022/07/28 07:24:55;;;;;;;;;;;15.60;99.90;;;;;;5011486;28;20406;-62
2022/07/28 07:27:24;;;;;;;;;;;15.70;99.90;;;;;;5010635;28;19925;-65
2022/07/28 07:29:51;;;;;;;;;;;15.70;99.90;;;;;;5010197;28;20007;-63
2022/07/28 07:32:18;;;;;;;;;;;15.80;99.90;;;;;;5010133;28;19932;-62
2022/07/28 07:34:46;;;;;;;;;;;15.80;99.90;;;;;;5017890;28;19926;-63
2022/07/28 07:37:14;;;;;;;;;;;15.80;99.90;;;;;;5028181;28;19930;-63
2022/07/28 07:39:41;;;;;;;;;;;15.80;99.90;;;;;;5011235;28;20390;-63
2022/07/28 07:42:08;;;;;;;;;;;15.80;99.90;;;;;;5011072;28;19926;-64
2022/07/28 07:44:36;;;;;;;;;;;15.90;99.90;;;;;;5010083;28;19926;-63
2022/07/28 07:47:03;;;;;;;;;;;15.90;99.90;;;;;;5011087;28;20296;-65
2022/07/28 07:49:31;;;;;;;;;;;16.00;99.90;;;;;;5006939;28;19932;-64
2022/07/28 07:52:13;;;;;;;;;;;16.00;99.90;;;;;;4995189;28;19929;-63
2022/07/28 07:54:41;;;;;;;;;;;16.00;99.90;;;;;;5019450;28;20399;-63
2022/07/28 07:57:08;;;;;;;;;;;16.00;99.90;;;;;;5009957;28;19926;-63
2022/07/28 07:59:36;;;;;;;;;;;16.00;99.90;;;;;;5024560;28;19926;-62
2022/07/28 08:02:05;;;;;;;;;;;15.90;99.90;;;;;;5010540;28;19929;-63
2022/07/28 08:04:32;;;;;;;;;;;16.00;99.90;;;;;;4993523;28;19934;-62
2022/07/28 08:07:04;;;;;;;;;;;16.00;99.90;;;;;;5007010;28;20090;-64
2022/07/28 08:09:32;;;;;;;;;;;16.00;99.90;;;;;;5010759;28;19932;-63
2022/07/28 08:12:00;;;;;;;;;;;16.00;99.90;;;;;;5013229;28;20293;-62
2022/07/28 08:14:27;;;;;;;;;;;16.00;99.90;;;;;;5025321;28;19925;-62
2022/07/28 08:16:57;;;;;;;;;;;16.00;99.90;;;;;;5009522;28;19926;-63
2022/07/28 08:19:24;;;;;;;;;;;16.00;99.90;;;;;;5009804;28;19948;-63
2022/07/28 08:21:54;;;;;;;;;;;16.00;99.90;;;;;;5009485;28;19925;-63
2022/07/28 08:24:22;;;;;;;;;;;16.00;99.90;;;;;;5010256;28;19925;-63
2022/07/28 08:27:00;;;;;;;;;;;16.10;99.90;;;;;;5009590;28;19926;-63
2022/07/28 08:29:27;;;;;;;;;;;16.10;99.90;;;;;;5009055;28;19933;-63
2022/07/28 08:31:55;;;;;;;;;;;16.10;99.90;;;;;;5009181;28;19948;-64
2022/07/28 08:34:23;;;;;;;;;;;16.10;99.90;;;;;;5007061;28;19925;-63
2022/07/28 08:37:00;;;;;;;;;;;16.10;99.90;;;;;;5022818;28;20442;-64
2022/07/28 08:39:28;;;;;;;;;;;16.10;99.90;;;;;;5005142;28;19930;-64
2022/07/28 08:42:06;;;;;;;;;;;16.20;99.90;;;;;;5008943;28;19936;-62
2022/07/28 08:44:49;;;;;;;;;;;16.20;99.90;;;;;;5007748;28;19933;-63
2022/07/28 08:47:16;;;;;;;;;;;16.20;99.90;;;;;;5009035;28;19936;-62
2022/07/28 08:49:46;;;;;;;;;;;16.30;99.90;;;;;;5016258;28;19925;-62
2022/07/28 08:52:14;;;;;;;;;;;16.30;99.90;;;;;;5021014;28;19933;-63
2022/07/28 08:54:44;;;;;;;;;;;16.40;99.90;;;;;;4996877;28;20497;-62
2022/07/28 08:57:15;;;;;;;;;;;16.40;99.90;;;;;;5009735;28;19926;-63
2022/07/28 08:59:43;;;;;;;;;;;16.50;99.90;;;;;;5007256;28;20389;-63
2022/07/28 09:02:11;;;;;;;;;;;16.50;99.90;;;;;;5009486;28;19933;-63
2022/07/28 09:04:40;;;;;;;;;;;16.50;99.90;;;;;;5008972;28;19925;-63
2022/07/28 09:07:09;;;;;;;;;;;16.50;99.90;;;;;;5008538;28;19925;-63
2022/07/28 09:09:37;;;;;;;;;;;16.60;99.90;;;;;;5024787;28;19933;-63
2022/07/28 09:12:05;;;;;;;;;;;16.60;99.90;;;;;;5021228;28;19933;-64
2022/07/28 09:14:33;;;;;;;;;;;16.70;99.90;;;;;;5007171;28;19976;-64
2022/07/28 09:17:01;;;;;;;;;;;16.70;99.90;;;;;;5009398;28;19926;-63
2022/07/28 09:19:32;;;;;;;;;;;16.70;99.90;;;;;;5008840;28;19933;-63
2022/07/28 09:22:02;;;;;;;;;;;16.70;99.90;;;;;;5007297;28;19925;-63
2022/07/28 09:24:41;;;;;;;;;;;16.70;99.90;;;;;;5004387;28;19925;-63
2022/07/28 09:27:13;;;;;;;;;;;16.70;99.90;;;;;;5022940;28;19929;-64
2022/07/28 09:29:43;;;;;;;;;;;16.80;99.90;;;;;;4995289;28;19925;-64
2022/07/28 09:32:12;;;;;;;;;;;16.80;99.90;;;;;;5009400;28;19925;-65
2022/07/28 09:34:40;;;;;;;;;;;16.80;99.90;;;;;;5021461;28;19933;-64
2022/07/28 09:37:17;;;;;;;;;;;16.80;99.90;;;;;;5008849;28;19925;-64
2022/07/28 09:39:56;;;;;;;;;;;16.80;99.90;;;;;;5007269;28;19926;-64
2022/07/28 09:42:24;;;;;;;;;;;16.80;99.90;;;;;;5008784;28;20295;-63
2022/07/28 09:45:03;;;;;;;;;;;16.80;99.90;;;;;;5004447;28;19926;-63
2022/07/28 09:48:06;;;;;;;;;;;16.80;99.90;;;;;;5008506;28;20364;-65
2022/07/28 09:50:34;;;;;;;;;;;16.90;99.90;;;;;;5008408;28;20403;-64
2022/07/28 09:53:21;;;;;;;;;;;16.80;99.90;;;;;;5003442;28;19949;-63
2022/07/28 09:55:53;;;;;;;;;;;16.80;99.90;;;;;;4989461;28;20305;-65
2022/07/28 09:58:20;;;;;;;;;;;16.90;99.90;;;;;;5003943;28;19925;-64
2022/07/28 10:00:48;;;;;;;;;;;16.80;99.90;;;;;;5004661;28;19932;-63
2022/07/28 10:03:25;;;;;;;;;;;16.90;99.90;;;;;;4998107;28;19926;-63
2022/07/28 10:05:53;;;;;;;;;;;16.90;99.90;;;;;;4996881;28;19926;-64
2022/07/28 10:08:41;;;;;;;;;;;16.90;99.90;;;;;;5007844;28;19933;-63
2022/07/28 10:11:09;;;;;;;;;;;17.00;99.90;;;;;;5005657;28;19933;-64
2022/07/28 10:13:50;;;;;;;;;;;17.00;99.90;;;;;;4998689;28;19956;-64
2022/07/28 10:16:19;;;;;;;;;;;17.00;99.90;;;;;;5004477;28;19926;-63
2022/07/28 10:18:47;;;;;;;;;;;17.00;99.90;;;;;;5009230;28;19937;-62
2022/07/28 10:21:16;;;;;;;;;;;17.10;99.90;;;;;;5011511;28;19960;-63
2022/07/28 10:23:48;;;;;;;;;;;17.10;99.90;;;;;;5012347;28;19937;-64
2022/07/28 10:26:19;;;;;;;;;;;17.10;99.90;;;;;;5030673;28;19925;-63
2022/07/28 10:28:48;;;;;;;;;;;17.20;99.90;;;;;;5011757;28;19930;-62
2022/07/28 10:31:22;;;;;;;;;;;17.20;99.90;;;;;;5012777;28;19926;-63
2022/07/28 10:33:51;;;;;;;;;;;17.20;99.90;;;;;;5011058;28;19949;-64
2022/07/28 10:36:23;;;;;;;;;;;17.30;99.90;;;;;;5011556;28;19926;-63
2022/07/28 10:38:57;;;;;;;;;;;17.30;99.90;;;;;;5010397;28;19926;-63
2022/07/28 10:41:27;;;;;;;;;;;17.30;99.90;;;;;;5012480;28;20406;-64
2022/07/28 10:43:56;;;;;;;;;;;17.30;99.90;;;;;;5006022;28;19930;-62
2022/07/28 10:46:24;;;;;;;;;;;17.40;99.90;;;;;;4994519;28;19933;-63
2022/07/28 10:48:52;;;;;;;;;;;17.40;99.90;;;;;;5010718;28;20300;-63
2022/07/28 10:51:20;;;;;;;;;;;17.40;99.90;;;;;;5010885;28;19926;-64
2022/07/28 10:53:52;;;;;;;;;;;17.50;99.90;;;;;;5011619;28;19932;-63
2022/07/28 10:56:30;;;;;;;;;;;17.50;99.90;;;;;;5011336;28;19929;-63
2022/07/28 10:59:10;;;;;;;;;;;17.60;99.90;;;;;;5010522;28;19933;-64
2022/07/28 11:01:38;;;;;;;;;;;17.60;99.90;;;;;;5010999;28;19930;-64
2022/07/28 11:04:39;;;;;;;;;;;17.70;99.90;;;;;;5006558;28;19936;-63
2022/07/28 11:07:10;;;;;;;;;;;17.80;99.90;;;;;;5005114;28;20289;-64
2022/07/28 11:09:38;;;;;;;;;;;17.80;99.90;;;;;;5011762;28;19932;-62
2022/07/28 11:12:05;;;;;;;;;;;17.80;99.90;;;;;;5010240;28;19926;-62
2022/07/28 11:14:36;;;;;;;;;;;17.90;99.90;;;;;;5009426;28;19933;-64
2022/07/28 11:17:05;;;;;;;;;;;17.90;99.90;;;;;;5011360;28;19929;-63
2022/07/28 11:19:43;;;;;;;;;;;18.00;99.90;;;;;;5010925;28;19925;-63
2022/07/28 11:22:32;;;;;;;;;;;18.10;99.90;;;;;;5010562;28;19926;-64
2022/07/28 11:25:00;;;;;;;;;;;18.20;99.90;;;;;;5018664;28;19925;-64
2022/07/28 11:27:53;;;;;;;;;;;18.20;99.90;;;;;;5018113;28;19930;-64
2022/07/28 11:30:27;;;;;;;;;;;18.30;99.90;;;;;;5009589;28;19944;-65
2022/07/28 11:32:55;;;;;;;;;;;18.40;99.90;;;;;;5016583;28;20416;-64
2022/07/28 11:35:26;;;;;;;;;;;18.50;99.90;;;;;;5010279;28;19926;-63
2022/07/28 11:38:00;;;;;;;;;;;18.50;99.90;;;;;;5003787;28;19933;-65
2022/07/28 11:40:37;;;;;;;;;;;18.60;99.90;;;;;;4993029;28;19932;-63
2022/07/28 11:43:20;;;;;;;;;;;18.70;99.90;;;;;;5004459;28;19926;-63
2022/07/28 11:46:01;;;;;;;;;;;18.70;99.90;;;;;;5010472;28;20395;-63
2022/07/28 11:48:29;;;;;;;;;;;18.70;99.90;;;;;;5010710;28;19952;-64
2022/07/28 11:51:03;;;;;;;;;;;18.70;99.90;;;;;;5005741;28;19929;-64
2022/07/28 11:53:38;;;;;;;;;;;18.80;99.90;;;;;;5010365;28;19933;-63
2022/07/28 11:56:09;;;;;;;;;;;18.80;99.90;;;;;;5025908;28;19933;-65
2022/07/28 11:58:37;;;;;;;;;;;18.80;99.90;;;;;;5009498;28;19948;-64
2022/07/28 12:01:14;;;;;;;;;;;18.80;99.90;;;;;;5011139;28;20155;-63
2022/07/28 12:03:48;;;;;;;;;;;18.80;99.90;;;;;;5002287;28;19929;-63
2022/07/28 12:06:23;;;;;;;;;;;18.80;99.90;;;;;;4997661;28;19926;-63
2022/07/28 12:08:56;;;;;;;;;;;18.90;99.90;;;;;;5009910;28;20292;-64
2022/07/28 12:11:26;;;;;;;;;;;18.90;99.90;;;;;;5010327;28;20374;-64
2022/07/28 12:14:01;;;;;;;;;;;19.00;99.90;;;;;;5009505;28;19925;-64
2022/07/28 12:16:29;;;;;;;;;;;19.10;99.90;;;;;;5010482;28;19941;-65
2022/07/28 12:19:01;;;;;;;;;;;19.10;99.90;;;;;;5006154;28;19925;-64
2022/07/28 12:21:38;;;;;;;;;;;19.20;99.90;;;;;;5002176;28;19933;-64
2022/07/28 12:24:14;;;;;;;;;;;19.30;99.90;;;;;;5006158;28;19925;-64
2022/07/28 12:26:42;;;;;;;;;;;19.40;99.90;;;;;;5030101;28;20510;-63
2022/07/28 12:29:13;;;;;;;;;;;19.50;99.90;;;;;;5001510;28;19925;-64
2022/07/28 12:31:54;;;;;;;;;;;19.50;99.90;;;;;;5009294;28;19933;-64
2022/07/28 12:34:22;;;;;;;;;;;19.60;99.90;;;;;;5010009;28;19930;-64
2022/07/28 12:36:56;;;;;;;;;;;19.80;99.90;;;;;;5009516;28;19925;-64
2022/07/28 12:39:24;;;;;;;;;;;19.80;99.90;;;;;;5009227;28;19933;-65
2022/07/28 12:42:00;;;;;;;;;;;19.90;99.90;;;;;;5007796;28;20392;-63
2022/07/28 12:44:31;;;;;;;;;;;19.90;99.90;;;;;;5007068;28;19926;-63
2022/07/28 12:46:59;;;;;;;;;;;20.00;99.90;;;;;;5009939;28;19929;-64
2022/07/28 12:49:26;;;;;;;;;;;20.10;99.90;;;;;;5002292;28;19930;-65
2022/07/28 12:51:54;;;;;;;;;;;20.20;99.90;;;;;;5008790;28;20685;-63
2022/07/28 12:54:33;;;;;;;;;;;20.20;99.90;;;;;;5008098;28;19937;-64
2022/07/28 12:57:00;;;;;;;;;;;20.30;99.90;;;;;;5007145;28;20312;-64
2022/07/28 12:59:31;;;;;;;;;;;20.20;99.90;;;;;;5006328;28;20292;-64
2022/07/28 13:02:00;;;;;;;;;;;20.10;99.90;;;;;;5004520;28;19925;-64
2022/07/28 13:04:47;;;;;;;;;;;20.20;99.90;;;;;;5005676;28;19929;-65
2022/07/28 13:07:14;;;;;;;;;;;20.20;99.90;;;;;;5005578;28;19933;-64
2022/07/28 13:09:45;;;;;;;;;;;20.20;99.90;;;;;;5005707;28;19933;-64
2022/07/28 13:12:27;;;;;;;;;;;20.20;99.90;;;;;;5005279;28;19941;-64
2022/07/28 13:14:55;;;;;;;;;;;20.10;99.90;;;;;;5002797;28;19929;-64
2022/07/28 13:17:30;;;;;;;;;;;20.00;99.90;;;;;;5006424;28;20305;-63
2022/07/28 13:20:02;;;;;;;;;;;20.00;99.90;;;;;;5004603;28;19926;-65
2022/07/28 13:22:32;;;;;;;;;;;20.00;99.90;;;;;;5005480;28;20274;-65
2022/07/28 13:24:59;;;;;;;;;;;20.00;99.90;;;;;;5015944;28;19925;-64
2022/07/28 13:27:27;;;;;;;;;;;20.00;99.90;;;;;;5016983;28;19930;-65
2022/07/28 13:29:55;;;;;;;;;;;20.10;99.90;;;;;;4986504;28;19929;-65
2022/07/28 13:32:23;;;;;;;;;;;20.10;99.90;;;;;;4990379;28;20284;-63
2022/07/28 13:34:51;;;;;;;;;;;20.20;99.90;;;;;;5005806;28;19930;-65
2022/07/28 13:37:18;;;;;;;;;;;20.20;99.90;;;;;;5005178;28;20072;-65
2022/07/28 13:39:46;;;;;;;;;;;20.30;99.90;;;;;;5005868;28;19932;-63
2022/07/28 13:42:20;;;;;;;;;;;20.30;99.90;;;;;;5006016;28;19929;-64
2022/07/28 13:44:50;;;;;;;;;;;20.40;99.90;;;;;;5005217;28;19926;-64
2022/07/28 13:47:17;;;;;;;;;;;20.40;99.90;;;;;;5004288;28;19937;-64
2022/07/28 13:49:45;;;;;;;;;;;20.40;99.90;;;;;;5005804;28;20296;-63
2022/07/28 13:52:16;;;;;;;;;;;20.50;99.90;;;;;;4999608;28;19926;-64
2022/07/28 13:55:02;;;;;;;;;;;20.50;99.90;;;;;;5005413;28;19972;-64
2022/07/28 13:57:30;;;;;;;;;;;20.60;99.80;;;;;;5005540;28;19929;-65
2022/07/28 14:00:05;;;;;;;;;;;20.60;99.90;;;;;;5005766;28;19933;-63
2022/07/28 14:02:34;;;;;;;;;;;20.70;99.30;;;;;;4988305;28;20309;-65
2022/07/28 14:05:02;;;;;;;;;;;20.70;99.80;;;;;;5005666;28;19929;-64
2022/07/28 14:07:29;;;;;;;;;;;20.70;99.90;;;;;;5002143;28;19933;-64
2022/07/28 14:09:57;;;;;;;;;;;20.80;99.90;;;;;;5005235;28;19936;-65
2022/07/28 14:12:25;;;;;;;;;;;20.80;99.50;;;;;;5005123;28;19944;-64
2022/07/28 14:14:53;;;;;;;;;;;20.90;99.10;;;;;;5005588;28;19936;-64
2022/07/28 14:17:23;;;;;;;;;;;20.80;99.40;;;;;;5005385;28;19929;-64
2022/07/28 14:20:12;;;;;;;;;;;20.90;99.10;;;;;;5004486;28;20369;-64
2022/07/28 14:22:39;;;;;;;;;;;20.90;98.70;;;;;;5004174;28;20089;-64
2022/07/28 14:25:07;;;;;;;;;;;20.80;99.10;;;;;;5012791;28;19933;-65
2022/07/28 14:27:35;;;;;;;;;;;20.80;98.70;;;;;;5018167;28;19930;-64
2022/07/28 14:30:04;;;;;;;;;;;20.90;98.80;;;;;;4999681;28;20308;-63
2022/07/28 14:32:31;;;;;;;;;;;20.90;99.00;;;;;;5007509;28;19932;-63
2022/07/28 14:34:59;;;;;;;;;;;20.80;98.40;;;;;;5008108;28;19925;-63
2022/07/28 14:37:28;;;;;;;;;;;20.80;98.70;;;;;;5008104;28;19925;-64
2022/07/28 14:40:07;;;;;;;;;;;20.80;98.70;;;;;;5008414;28;20405;-64
2022/07/28 14:42:35;;;;;;;;;;;20.70;98.30;;;;;;5008476;28;19929;-64
2022/07/28 14:45:04;;;;;;;;;;;20.70;98.50;;;;;;5007230;28;19941;-63
2022/07/28 14:47:32;;;;;;;;;;;20.70;98.90;;;;;;5008532;28;19925;-63
2022/07/28 14:50:12;;;;;;;;;;;20.70;99.10;;;;;;5008516;28;19936;-64
2022/07/28 14:52:41;;;;;;;;;;;20.70;99.10;;;;;;5007575;28;19929;-62
2022/07/28 14:55:11;;;;;;;;;;;20.60;98.60;;;;;;5008486;28;19933;-63
2022/07/28 14:57:39;;;;;;;;;;;20.60;99.00;;;;;;5008090;28;19925;-64
2022/07/28 15:00:18;;;;;;;;;;;20.70;99.10;;;;;;5006951;28;19926;-63
2022/07/28 15:02:46;;;;;;;;;;;20.60;98.70;;;;;;5008294;28;19929;-62
2022/07/28 15:05:14;;;;;;;;;;;20.60;98.50;;;;;;5008436;28;19926;-63
2022/07/28 15:07:41;;;;;;;;;;;20.60;98.60;;;;;;5011003;28;20385;-62
2022/07/28 15:10:09;;;;;;;;;;;20.60;98.70;;;;;;5010431;28;19929;-63
2022/07/28 15:12:37;;;;;;;;;;;20.60;98.70;;;;;;5007207;28;20384;-65
2022/07/28 15:15:04;;;;;;;;;;;20.60;98.50;;;;;;5009969;28;19937;-64
2022/07/28 15:17:32;;;;;;;;;;;20.60;98.40;;;;;;5011634;28;19964;-64
2022/07/28 15:20:02;;;;;;;;;;;20.60;98.60;;;;;;5011948;28;19933;-64
2022/07/28 15:22:29;;;;;;;;;;;20.50;98.20;;;;;;5011917;28;20275;-64
2022/07/28 15:24:56;;;;;;;;;;;20.50;98.40;;;;;;5018692;28;20269;-64
2022/07/28 15:27:26;;;;;;;;;;;20.50;98.70;;;;;;5024277;28;20325;-64
2022/07/28 15:30:00;;;;;;;;;;;20.50;98.60;;;;;;5003940;28;20395;-63
2022/07/28 15:32:32;;;;;;;;;;;20.50;98.80;;;;;;5009949;28;19929;-64
2022/07/28 15:34:59;;;;;;;;;;;20.50;98.90;;;;;;5010158;28;19925;-64
2022/07/28 15:37:26;;;;;;;;;;;20.50;98.90;;;;;;5010828;28;19932;-64
2022/07/28 15:39:54;;;;;;;;;;;20.50;99.00;;;;;;5011215;28;19926;-64
2022/07/28 15:42:22;;;;;;;;;;;20.50;99.10;;;;;;5007425;28;19933;-65
2022/07/28 15:44:50;;;;;;;;;;;20.50;99.10;;;;;;4991212;28;19933;-64
2022/07/28 15:47:18;;;;;;;;;;;20.40;99.00;;;;;;5009861;28;20308;-64